createdAt,value
2019-01-18T00:02:24.776Z,6.53
2019-01-18T00:07:33.690Z,6.58
2019-01-18T00:12:42.634Z,7.18
2019-01-18T00:17:51.579Z,7.47
2019-01-18T00:23:00.626Z,9.77
2019-01-18T00:28:09.583Z,8.74
2019-01-18T00:33:18.779Z,7.70
2019-01-18T00:38:27.696Z,10.48
2019-01-18T00:43:36.642Z,9.30
2019-01-18T00:48:45.618Z,11.62
2019-01-18T00:53:54.574Z,8.71
2019-01-18T00:59:03.566Z,6.36
2019-01-18T01:04:12.521Z,12.04
2019-01-18T01:09:21.513Z,8.99
2019-01-18T01:14:30.435Z,8.40
2019-01-18T01:19:39.470Z,9.87
2019-01-18T01:24:48.406Z,8.52
2019-01-18T01:29:57.392Z,9.73
2019-01-18T01:35:06.349Z,9.94
2019-01-18T01:40:15.394Z,11.86
2019-01-18T01:45:24.319Z,11.92
2019-01-18T01:50:33.290Z,10.97
2019-01-18T01:55:42.253Z,11.34
2019-01-18T02:00:51.258Z,9.31
2019-01-18T02:06:00.198Z,14.22
2019-01-18T02:11:09.156Z,12.21
2019-01-18T02:16:18.129Z,13.41
2019-01-18T02:21:27.138Z,13.20
2019-01-18T02:26:36.066Z,11.77
2019-01-18T02:31:45.078Z,11.29
2019-01-18T02:36:54.023Z,14.00
2019-01-18T02:42:03.092Z,11.56
2019-01-18T02:47:12.041Z,13.18
2019-01-18T02:52:21.073Z,15.44
2019-01-18T02:57:30.035Z,12.20
2019-01-18T03:02:38.998Z,10.89
2019-01-18T03:07:47.978Z,12.50
2019-01-18T03:12:56.931Z,18.38
2019-01-18T03:18:05.898Z,13.54
2019-01-18T03:23:14.862Z,13.28
2019-01-18T03:28:23.875Z,15.50
2019-01-18T03:33:32.823Z,15.34
2019-01-18T03:38:41.851Z,13.45
2019-01-18T03:43:50.813Z,12.06
2019-01-18T03:48:59.830Z,15.29
2019-01-18T03:54:08.788Z,13.54
2019-01-18T03:59:17.831Z,14.03
2019-01-18T04:04:27.825Z,14.62
2019-01-18T04:09:35.286Z,13.26
2019-01-18T04:14:44.216Z,15.89
2019-01-18T04:19:53.247Z,17.17
2019-01-18T04:25:02.211Z,15.63
2019-01-18T04:30:11.181Z,14.09
2019-01-18T04:35:20.146Z,15.08
2019-01-18T04:40:29.122Z,11.93
2019-01-18T04:45:38.086Z,11.76
2019-01-18T04:50:47.120Z,15.83
2019-01-18T04:55:56.065Z,16.48
2019-01-18T05:01:05.074Z,20.28
2019-01-18T05:06:14.034Z,15.94
2019-01-18T05:11:23.019Z,19.94
2019-01-18T05:16:31.971Z,18.09
2019-01-18T05:21:40.966Z,15.53
2019-01-18T05:26:49.893Z,20.78
2019-01-18T05:31:58.915Z,18.35
2019-01-18T05:37:07.852Z,19.81
2019-01-18T05:42:16.793Z,17.98
2019-01-18T05:47:25.762Z,23.61
2019-01-18T05:52:34.726Z,18.82
2019-01-18T05:57:43.707Z,16.28
2019-01-18T06:02:52.646Z,16.16
2019-01-18T06:08:01.626Z,15.51
2019-01-18T06:13:10.577Z,13.76
2019-01-18T06:18:19.572Z,16.45
2019-01-18T06:23:28.502Z,15.75
2019-01-18T06:28:37.462Z,15.15
2019-01-18T06:33:46.452Z,15.79
2019-01-18T06:38:55.387Z,15.56
2019-01-18T06:44:04.346Z,13.38
2019-01-18T06:49:13.282Z,16.86
2019-01-18T06:54:20.778Z,15.74
2019-01-18T06:59:29.722Z,13.94
2019-01-18T07:04:41.472Z,16.01
2019-01-18T07:09:47.223Z,14.61
2019-01-18T07:14:56.202Z,15.21
2019-01-18T07:20:05.142Z,17.97
2019-01-18T07:25:14.161Z,17.17
2019-01-18T07:30:23.107Z,19.04
2019-01-18T07:35:32.116Z,16.96
2019-01-18T07:40:41.065Z,20.20
2019-01-18T07:45:50.042Z,19.85
2019-01-18T07:50:58.994Z,20.67
2019-01-18T07:56:07.990Z,17.89
2019-01-18T08:01:22.059Z,17.99
2019-01-18T08:06:25.502Z,18.23
2019-01-18T08:11:34.442Z,19.46
2019-01-18T08:16:43.661Z,18.70
2019-01-18T08:21:52.366Z,17.84
2019-01-18T08:27:01.367Z,18.53
2019-01-18T08:32:10.310Z,20.83
2019-01-18T08:37:19.344Z,22.89
2019-01-18T08:42:28.294Z,21.89
2019-01-18T08:47:37.335Z,20.58
2019-01-18T08:52:46.330Z,19.50
2019-01-18T08:57:55.346Z,18.72
2019-01-18T09:03:04.285Z,18.13
2019-01-18T09:08:13.322Z,20.00
2019-01-18T09:13:22.258Z,19.98
2019-01-18T09:18:32.689Z,21.73
2019-01-18T09:23:39.694Z,22.32
2019-01-18T09:28:48.709Z,25.94
2019-01-18T09:33:57.662Z,28.00
2019-01-18T09:39:06.690Z,31.10
2019-01-18T09:44:15.682Z,29.70
2019-01-18T09:49:24.706Z,31.85
2019-01-18T09:54:33.654Z,32.06
2019-01-18T09:59:42.670Z,31.17
2019-01-18T10:04:51.590Z,31.07
2019-01-18T10:10:00.550Z,29.82
2019-01-18T10:15:09.490Z,31.05
2019-01-18T10:20:19.430Z,31.23
2019-01-18T10:25:28.349Z,33.34
2019-01-18T10:30:37.393Z,30.89
2019-01-18T10:35:46.379Z,35.00
2019-01-18T10:40:55.377Z,36.92
2019-01-18T10:46:05.395Z,34.98
2019-01-18T10:51:04.498Z,34.93
2019-01-18T10:56:13.517Z,39.18
2019-01-18T11:01:22.477Z,42.63
2019-01-18T11:06:31.410Z,42.73
2019-01-18T11:11:40.431Z,41.63
2019-01-18T11:16:49.386Z,45.61
2019-01-18T11:21:58.518Z,47.92
2019-01-18T11:27:07.455Z,42.58
2019-01-18T11:32:16.454Z,38.36
2019-01-18T11:37:25.422Z,43.99
2019-01-18T11:42:34.434Z,43.04
2019-01-18T11:47:43.351Z,37.08
2019-01-18T11:52:52.326Z,37.80
2019-01-18T11:58:01.290Z,37.85
2019-01-18T12:03:10.358Z,33.16
2019-01-18T12:08:19.334Z,34.78
2019-01-18T12:13:28.342Z,34.31
2019-01-18T12:18:37.274Z,39.79
2019-01-18T12:23:46.319Z,38.59
2019-01-18T12:28:55.277Z,42.65
2019-01-18T12:34:04.362Z,45.15
2019-01-18T12:39:13.282Z,44.63
2019-01-18T12:44:22.305Z,39.14
2019-01-18T12:49:31.254Z,45.96
2019-01-18T12:54:40.312Z,45.96
2019-01-18T12:59:49.241Z,46.41
2019-01-18T13:04:58.306Z,48.93
2019-01-18T13:10:11.674Z,49.32
2019-01-18T13:15:14.458Z,46.90
2019-01-18T13:20:24.265Z,51.64
2019-01-18T13:25:33.245Z,46.09
2019-01-18T13:30:42.190Z,44.82
2019-01-18T13:35:51.205Z,44.83
2019-01-18T13:41:00.160Z,46.79
2019-01-18T13:46:09.179Z,57.36
2019-01-18T13:51:18.122Z,68.88
2019-01-18T13:56:27.113Z,81.02
2019-01-18T14:01:36.066Z,92.21
2019-01-18T14:06:45.033Z,86.84
2019-01-18T14:11:55.892Z,81.24
2019-01-18T14:17:02.538Z,78.30
2019-01-18T14:22:11.457Z,68.03
2019-01-18T14:27:20.418Z,62.15
2019-01-18T14:32:29.382Z,61.33
2019-01-18T14:37:38.431Z,58.32
2019-01-18T14:42:47.351Z,62.31
2019-01-18T14:47:56.324Z,61.16
2019-01-18T14:53:05.286Z,58.62
2019-01-18T14:58:14.262Z,67.84
2019-01-18T15:03:23.194Z,66.95
2019-01-18T15:08:32.155Z,63.71
2019-01-18T15:13:41.100Z,57.63
2019-01-18T15:18:50.071Z,56.35
2019-01-18T15:23:59.007Z,58.52
2019-01-18T15:29:08.039Z,51.01
2019-01-18T15:34:16.994Z,49.82
2019-01-18T15:39:26.726Z,50.88
2019-01-18T15:44:35.684Z,57.08
2019-01-18T15:49:44.836Z,50.93
2019-01-18T15:54:53.783Z,41.71
2019-01-18T16:00:02.768Z,45.42
2019-01-18T16:05:11.767Z,47.22
2019-01-18T16:10:20.776Z,49.00
2019-01-18T16:15:29.690Z,54.82
2019-01-18T16:20:38.758Z,49.24
2019-01-18T16:25:47.695Z,55.84
2019-01-18T16:30:56.734Z,65.67
2019-01-18T16:36:05.669Z,55.06
2019-01-18T16:41:14.686Z,88.14
2019-01-18T16:46:23.663Z,71.89
2019-01-18T16:51:32.707Z,71.63
2019-01-18T16:56:41.670Z,78.73
2019-01-18T17:01:50.626Z,67.36
2019-01-18T17:06:59.570Z,64.56
2019-01-18T17:12:08.806Z,62.64
2019-01-18T17:17:18.240Z,59.26
2019-01-18T17:22:27.350Z,60.18
2019-01-18T17:27:36.295Z,71.18
2019-01-18T17:32:45.242Z,69.63
2019-01-18T17:37:54.204Z,80.61
2019-01-18T17:43:03.327Z,84.02
2019-01-18T17:48:12.270Z,69.23
2019-01-18T17:53:21.280Z,68.07
2019-01-18T17:58:30.226Z,68.03
2019-01-18T18:03:43.468Z,71.63
2019-01-18T18:08:47.675Z,70.94
2019-01-18T18:13:56.714Z,86.02
2019-01-18T18:19:05.659Z,82.57
2019-01-18T18:24:14.658Z,83.30
2019-01-18T18:29:23.655Z,83.76
2019-01-18T18:34:32.610Z,80.35
2019-01-18T18:39:41.567Z,77.25
2019-01-18T18:44:50.543Z,68.25
2019-01-18T18:49:59.480Z,88.38
2019-01-18T18:55:08.494Z,100.45
2019-01-18T19:00:17.431Z,101.59
2019-01-18T19:05:27.297Z,100.99
2019-01-18T19:10:34.898Z,97.38
2019-01-18T19:15:43.898Z,109.79
2019-01-18T19:20:52.834Z,116.74
2019-01-18T19:26:01.858Z,106.91
2019-01-18T19:31:10.806Z,114.26
2019-01-18T19:36:19.778Z,111.78
2019-01-18T19:41:28.726Z,118.64
2019-01-18T19:46:37.738Z,129.74
2019-01-18T19:51:46.690Z,141.83
2019-01-18T19:56:55.662Z,117.89
2019-01-18T20:02:04.638Z,138.54
2019-01-18T20:07:13.642Z,148.77
2019-01-18T20:12:22.602Z,140.45
2019-01-18T20:17:31.539Z,131.79
2019-01-18T20:22:40.514Z,120.84
2019-01-18T20:27:49.490Z,140.97
2019-01-18T20:32:58.422Z,128.95
2019-01-18T20:38:07.366Z,126.10
2019-01-18T20:43:16.347Z,135.32
2019-01-18T20:48:25.294Z,127.68
2019-01-18T20:53:34.267Z,130.21
2019-01-18T20:58:43.190Z,134.70
2019-01-18T21:03:52.206Z,131.67
2019-01-18T21:09:01.179Z,124.72
2019-01-18T21:14:10.158Z,127.02
2019-01-18T21:19:19.060Z,135.51
2019-01-18T21:24:28.035Z,113.99
2019-01-18T21:29:36.986Z,128.79
2019-01-18T21:34:46.015Z,128.92
2019-01-18T21:39:54.975Z,122.99
2019-01-18T21:45:03.979Z,99.01
2019-01-18T21:50:12.910Z,102.51
2019-01-18T21:55:22.303Z,91.47
2019-01-18T22:00:30.410Z,106.58
2019-01-18T22:05:39.459Z,106.60
2019-01-18T22:10:48.358Z,118.91
2019-01-18T22:15:57.401Z,116.65
2019-01-18T22:21:06.334Z,121.77
2019-01-18T22:26:15.290Z,122.61
2019-01-18T22:31:24.235Z,114.19
2019-01-18T22:36:33.242Z,107.22
2019-01-18T22:41:42.178Z,102.12
2019-01-18T22:46:51.178Z,104.73
2019-01-18T22:52:00.104Z,110.39
2019-01-18T22:57:09.109Z,109.61
2019-01-18T23:02:19.354Z,106.29
2019-01-18T23:07:26.511Z,110.31
2019-01-18T23:12:35.433Z,106.00
2019-01-18T23:17:44.393Z,119.62
2019-01-18T23:22:53.402Z,126.03
2019-01-18T23:28:02.361Z,112.47
2019-01-18T23:33:11.319Z,100.58
2019-01-18T23:38:20.254Z,106.39
2019-01-18T23:43:29.227Z,98.85
2019-01-18T23:48:38.178Z,107.42
2019-01-18T23:53:47.199Z,104.76
2019-01-18T23:58:56.128Z,104.46
